Time;durP1;ratioP1;P1;durP2;ratioP2;P2;SDS_P1;SDS_P2;PMS_P1;PMS_P2;Temp;Humidity;BMP_temperature;BMP_pressure;BME280_temperature;BME280_humidity;BME280_pressure;Samples;Min_cycle;Max_cycle;Signal;HPM_P1;HPM_P2
2023/09/20 00:00:13;;;;;;;0.10;0.10;;;;;;;;;;6293272;28;20079;-89
2023/09/20 00:03:13;;;;;;;0.10;0.10;;;;;;;;;;6280974;28;20369;-89
2023/09/20 00:06:13;;;;;;;0.10;0.10;;;;;;;;;;6277548;28;20078;-89
2023/09/20 00:09:17;;;;;;;0.10;0.10;;;;;;;;;;6286588;28;20044;-89
2023/09/20 00:12:17;;;;;;;0.20;0.20;;;;;;;;;;6282390;28;20028;-89
2023/09/20 00:15:18;;;;;;;0.10;0.10;;;;;;;;;;6268306;28;20025;-87
2023/09/20 00:18:19;;;;;;;0.10;0.10;;;;;;;;;;6261617;28;20533;-89
2023/09/20 00:21:20;;;;;;;0.10;0.10;;;;;;;;;;6293296;28;20020;-89
2023/09/20 00:24:20;;;;;;;0.10;0.10;;;;;;;;;;6293236;28;20024;-88
2023/09/20 00:27:20;;;;;;;0.10;0.10;;;;;;;;;;6293584;28;20020;-89
2023/09/20 00:30:20;;;;;;;0.10;0.10;;;;;;;;;;6292417;28;20064;-89
2023/09/20 00:33:21;;;;;;;0.10;0.10;;;;;;;;;;6260461;28;20111;-89
2023/09/20 00:36:21;;;;;;;0.10;0.10;;;;;;;;;;6274353;28;20036;-90
2023/09/20 00:39:23;;;;;;;0.10;0.10;;;;;;;;;;6292874;28;20032;-89
2023/09/20 00:42:23;;;;;;;0.10;0.10;;;;;;;;;;6284791;28;20704;-89
2023/09/20 00:45:24;;;;;;;0.10;0.10;;;;;;;;;;6292162;28;20022;-90
2023/09/20 00:48:24;;;;;;;0.10;0.10;;;;;;;;;;6270956;28;20507;-90
2023/09/20 00:51:25;;;;;;;0.10;0.10;;;;;;;;;;6267515;28;20123;-89
2023/09/20 00:54:26;;;;;;;0.10;0.10;;;;;;;;;;6292879;28;20475;-90
2023/09/20 00:57:27;;;;;;;0.10;0.10;;;;;;;;;;6260286;28;20027;-90
2023/09/20 01:00:28;;;;;;;0.10;0.10;;;;;;;;;;6284579;28;20061;-89
2023/09/20 01:03:31;;;;;;;0.10;0.10;;;;;;;;;;6252889;28;20060;-90
2023/09/20 01:06:32;;;;;;;0.20;0.20;;;;;;;;;;6270235;28;20033;-90
2023/09/20 01:09:32;;;;;;;0.10;0.10;;;;;;;;;;6267029;28;20040;-90
2023/09/20 01:12:33;;;;;;;0.10;0.10;;;;;;;;;;6267994;28;20734;-89
2023/09/20 01:15:34;;;;;;;0.10;0.10;;;;;;;;;;6265824;28;20494;-90
2023/09/20 01:18:34;;;;;;;0.10;0.10;;;;;;;;;;6264767;28;20471;-90
2023/09/20 01:21:43;;;;;;;0.10;0.10;;;;;;;;;;6284517;28;20024;-90
2023/09/20 01:24:45;;;;;;;0.20;0.20;;;;;;;;;;6297388;28;20056;-89
2023/09/20 01:27:45;;;;;;;0.10;0.10;;;;;;;;;;6278088;28;20044;-90
2023/09/20 01:30:50;;;;;;;0.10;0.10;;;;;;;;;;6296580;28;20063;-90
2023/09/20 01:33:51;;;;;;;0.10;0.10;;;;;;;;;;6276460;28;20047;-90
2023/09/20 01:36:52;;;;;;;0.10;0.10;;;;;;;;;;6285624;28;20035;-90
2023/09/20 01:39:52;;;;;;;0.13;0.13;;;;;;;;;;6299825;28;20394;-90
2023/09/20 01:42:53;;;;;;;0.20;0.20;;;;;;;;;;6291737;28;20048;-89
2023/09/20 01:45:53;;;;;;;0.10;0.10;;;;;;;;;;6262451;28;20017;-89
2023/09/20 01:48:53;;;;;;;0.10;0.10;;;;;;;;;;6297126;28;20021;-89
2023/09/20 01:51:54;;;;;;;0.10;0.10;;;;;;;;;;6296969;28;20021;-88
2023/09/20 01:54:57;;;;;;;0.10;0.10;;;;;;;;;;6280586;28;20070;-89
2023/09/20 01:57:59;;;;;;;0.10;0.10;;;;;;;;;;6299530;28;20040;-89
2023/09/20 02:00:59;;;;;;;0.10;0.10;;;;;;;;;;6300045;28;20043;-90
2023/09/20 02:04:00;;;;;;;0.10;0.10;;;;;;;;;;6289184;28;20029;-90
2023/09/20 02:07:00;;;;;;;0.20;0.20;;;;;;;;;;6275269;28;20490;-90
2023/09/20 02:10:00;;;;;;;0.10;0.10;;;;;;;;;;6273211;28;20040;-90
2023/09/20 02:13:01;;;;;;;0.20;0.20;;;;;;;;;;6267916;28;20067;-89
2023/09/20 02:16:01;;;;;;;0.10;0.10;;;;;;;;;;6299295;28;20039;-89
2023/09/20 02:19:02;;;;;;;0.10;0.10;;;;;;;;;;6275727;28;20032;-90
2023/09/20 02:22:03;;;;;;;0.10;0.10;;;;;;;;;;6259906;28;20372;-89
2023/09/20 02:25:05;;;;;;;0.10;0.10;;;;;;;;;;6277346;28;20104;-89
2023/09/20 02:28:07;;;;;;;0.20;0.20;;;;;;;;;;6283766;28;20479;-89
2023/09/20 02:31:09;;;;;;;0.10;0.10;;;;;;;;;;6280015;28;20032;-90
2023/09/20 02:34:11;;;;;;;0.10;0.10;;;;;;;;;;6270037;28;20477;-89
2023/09/20 02:37:12;;;;;;;0.20;0.20;;;;;;;;;;6296535;28;20221;-89
2023/09/20 02:40:19;;;;;;;0.13;0.13;;;;;;;;;;6266341;28;20087;-90
2023/09/20 02:43:19;;;;;;;0.15;0.15;;;;;;;;;;6283367;28;20051;-90
2023/09/20 02:46:20;;;;;;;0.20;0.20;;;;;;;;;;6271125;28;20029;-90
2023/09/20 02:49:20;;;;;;;0.20;0.20;;;;;;;;;;6294236;28;20028;-89
2023/09/20 02:52:21;;;;;;;0.10;0.10;;;;;;;;;;6281087;28;20523;-89
2023/09/20 02:55:22;;;;;;;0.20;0.20;;;;;;;;;;6277791;28;20126;-89
2023/09/20 02:58:22;;;;;;;0.17;0.17;;;;;;;;;;6294936;28;20633;-89
2023/09/20 03:01:24;;;;;;;0.20;0.20;;;;;;;;;;6289410;28;20569;-89
2023/09/20 03:04:24;;;;;;;0.10;0.10;;;;;;;;;;6273454;28;20017;-90
2023/09/20 03:07:25;;;;;;;0.20;0.20;;;;;;;;;;6281650;28;20099;-89
2023/09/20 03:10:28;;;;;;;0.20;0.20;;;;;;;;;;6294869;28;20029;-90
2023/09/20 03:13:28;;;;;;;0.20;0.20;;;;;;;;;;6275556;28;20066;-90
2023/09/20 03:16:29;;;;;;;0.20;0.20;;;;;;;;;;6281425;28;20017;-90
2023/09/20 03:19:31;;;;;;;0.20;0.20;;;;;;;;;;6280569;28;20036;-90
2023/09/20 03:22:31;;;;;;;0.20;0.20;;;;;;;;;;6281237;28;20032;-89
2023/09/20 03:25:35;;;;;;;0.20;0.20;;;;;;;;;;6294490;28;20423;-90
2023/09/20 03:28:36;;;;;;;0.20;0.20;;;;;;;;;;6294227;28;20107;-90
2023/09/20 03:31:36;;;;;;;0.10;0.10;;;;;;;;;;6281710;28;20028;-90
2023/09/20 03:34:36;;;;;;;0.20;0.20;;;;;;;;;;6285874;28;20049;-90
2023/09/20 03:37:37;;;;;;;0.20;0.20;;;;;;;;;;6262778;28;20031;-90
2023/09/20 03:40:40;;;;;;;0.20;0.20;;;;;;;;;;6291312;28;20032;-89
2023/09/20 03:43:41;;;;;;;0.20;0.20;;;;;;;;;;6252145;28;20032;-90
2023/09/20 03:46:41;;;;;;;0.20;0.20;;;;;;;;;;6269171;28;20024;-89
2023/09/20 03:49:42;;;;;;;0.17;0.17;;;;;;;;;;6275003;28;20059;-88
2023/09/20 03:52:42;;;;;;;0.20;0.20;;;;;;;;;;6285005;28;20020;-88
2023/09/20 03:55:44;;;;;;;0.20;0.20;;;;;;;;;;6272280;28;20021;-89
2023/09/20 03:58:45;;;;;;;0.20;0.20;;;;;;;;;;6276252;28;20115;-89
2023/09/20 04:01:45;;;;;;;0.20;0.20;;;;;;;;;;6273751;28;20028;-89
2023/09/20 04:04:46;;;;;;;0.10;0.10;;;;;;;;;;6301297;28;20744;-90
2023/09/20 04:07:48;;;;;;;0.20;0.20;;;;;;;;;;6287579;28;20064;-89
2023/09/20 04:10:50;;;;;;;0.20;0.20;;;;;;;;;;6274616;28;20097;-88
2023/09/20 04:13:50;;;;;;;0.20;0.20;;;;;;;;;;6277062;28;20023;-88
2023/09/20 04:16:52;;;;;;;0.20;0.20;;;;;;;;;;6273022;28;20013;-88
2023/09/20 04:19:53;;;;;;;0.20;0.20;;;;;;;;;;6258837;28;20029;-88
2023/09/20 04:22:53;;;;;;;0.20;0.20;;;;;;;;;;6269562;28;20025;-89
2023/09/20 04:25:55;;;;;;;0.20;0.20;;;;;;;;;;6261868;28;20029;-89
2023/09/20 04:28:55;;;;;;;;;;;;;;;;;;6287591;28;20028;-90
2023/09/20 04:31:56;;;;;;;0.20;0.20;;;;;;;;;;6300138;28;19919;-90
2023/09/20 04:34:56;;;;;;;0.20;0.20;;;;;;;;;;6285363;28;20016;-90
2023/09/20 04:37:56;;;;;;;0.20;0.20;;;;;;;;;;6284579;28;20020;-89
2023/09/20 04:40:59;;;;;;;0.10;0.10;;;;;;;;;;6294881;28;20085;-89
2023/09/20 04:43:59;;;;;;;0.20;0.20;;;;;;;;;;6267225;28;20378;-91
2023/09/20 04:46:59;;;;;;;0.20;0.20;;;;;;;;;;6287433;28;20024;-90
2023/09/20 04:49:59;;;;;;;0.20;0.20;;;;;;;;;;6283269;28;20025;-91
2023/09/20 04:53:00;;;;;;;0.20;0.20;;;;;;;;;;6287558;28;20065;-90
2023/09/20 04:56:01;;;;;;;0.20;0.20;;;;;;;;;;6277699;28;20620;-90
2023/09/20 04:59:04;;;;;;;0.17;0.17;;;;;;;;;;6276272;28;20027;-90
2023/09/20 05:02:04;;;;;;;0.20;0.20;;;;;;;;;;6281393;28;20027;-91
2023/09/20 05:05:05;;;;;;;0.20;0.20;;;;;;;;;;6264818;28;20542;-90
2023/09/20 05:08:05;;;;;;;0.20;0.20;;;;;;;;;;6269935;28;20399;-91
2023/09/20 05:11:10;;;;;;;0.20;0.20;;;;;;;;;;6284351;28;20651;-90
2023/09/20 05:14:10;;;;;;;0.17;0.17;;;;;;;;;;6274898;28;20505;-90
2023/09/20 05:17:10;;;;;;;0.10;0.10;;;;;;;;;;6262958;28;20087;-88
2023/09/20 05:20:13;;;;;;;0.20;0.20;;;;;;;;;;6265004;28;20471;-89
2023/09/20 05:23:43;;;;;;;0.10;0.10;;;;;;;;;;6257574;28;20916;-90
2023/09/20 05:26:44;;;;;;;0.20;0.20;;;;;;;;;;6291434;28;20021;-90
2023/09/20 05:29:44;;;;;;;0.13;0.13;;;;;;;;;;6279779;28;20371;-90
2023/09/20 05:32:46;;;;;;;0.10;0.10;;;;;;;;;;6297546;28;20095;-90
2023/09/20 05:35:47;;;;;;;0.10;0.10;;;;;;;;;;6297869;28;20013;-90
2023/09/20 05:38:48;;;;;;;0.10;0.10;;;;;;;;;;6279434;28;20024;-90
2023/09/20 05:41:48;;;;;;;0.10;0.10;;;;;;;;;;6297311;28;20021;-89
2023/09/20 05:44:48;;;;;;;0.10;0.10;;;;;;;;;;6297567;28;20017;-89
2023/09/20 05:47:49;;;;;;;0.10;0.10;;;;;;;;;;6296686;28;20493;-90
2023/09/20 05:50:50;;;;;;;0.10;0.10;;;;;;;;;;6278997;28;20467;-90
2023/09/20 05:53:50;;;;;;;0.10;0.10;;;;;;;;;;6283195;28;20529;-90
2023/09/20 05:56:51;;;;;;;0.10;0.10;;;;;;;;;;6271227;28;20378;-90
2023/09/20 05:59:52;;;;;;;0.10;0.10;;;;;;;;;;6277736;28;20040;-89
2023/09/20 06:02:53;;;;;;;0.10;0.10;;;;;;;;;;6255915;28;20458;-89
2023/09/20 06:05:54;;;;;;;0.00;0.00;;;;;;;;;;6281269;28;20016;-89
2023/09/20 06:08:54;;;;;;;0.10;0.10;;;;;;;;;;6264421;28;20049;-89
2023/09/20 06:11:54;;;;;;;0.10;0.10;;;;;;;;;;6272266;28;20136;-89
2023/09/20 06:14:54;;;;;;;0.10;0.10;;;;;;;;;;6275607;28;20020;-89
2023/09/20 06:17:55;;;;;;;0.00;0.00;;;;;;;;;;6271367;28;20028;-89
2023/09/20 06:20:55;;;;;;;0.00;0.00;;;;;;;;;;6285960;28;20475;-88
2023/09/20 06:23:56;;;;;;;0.00;0.00;;;;;;;;;;6287049;28;20115;-89
2023/09/20 06:26:58;;;;;;;0.00;0.00;;;;;;;;;;6289649;28;20033;-89
2023/09/20 06:29:59;;;;;;;0.00;0.00;;;;;;;;;;6269375;28;20031;-88
2023/09/20 06:32:59;;;;;;;0.10;0.10;;;;;;;;;;6288938;28;20025;-88
2023/09/20 06:35:59;;;;;;;0.00;0.00;;;;;;;;;;6278533;28;20012;-89
2023/09/20 06:39:00;;;;;;;0.00;0.00;;;;;;;;;;6261498;28;20012;-90
2023/09/20 06:42:01;;;;;;;0.00;0.00;;;;;;;;;;6290899;28;20024;-89
2023/09/20 06:45:02;;;;;;;0.00;0.00;;;;;;;;;;6275795;28;20462;-89
2023/09/20 06:48:03;;;;;;;0.00;0.00;;;;;;;;;;6275210;28;20027;-90
2023/09/20 06:51:06;;;;;;;0.07;0.07;;;;;;;;;;6273568;28;20128;-90
2023/09/20 06:54:08;;;;;;;0.00;0.00;;;;;;;;;;6272210;28;20025;-90
2023/09/20 06:57:13;;;;;;;0.00;0.00;;;;;;;;;;6272963;28;20021;-90
2023/09/20 07:00:26;;;;;;;0.00;0.00;;;;;;;;;;6283935;28;20019;-90
2023/09/20 07:03:26;;;;;;;0.00;0.00;;;;;;;;;;6273745;28;20479;-91
2023/09/20 07:06:27;;;;;;;0.00;0.00;;;;;;;;;;6293743;28;20035;-91
2023/09/20 07:09:27;;;;;;;0.00;0.00;;;;;;;;;;6278458;28;20033;-90
2023/09/20 07:12:28;;;;;;;0.00;0.00;;;;;;;;;;6276114;28;20029;-90
2023/09/20 07:15:29;;;;;;;0.00;0.00;;;;;;;;;;6284712;28;20040;-91
2023/09/20 07:18:29;;;;;;;0.00;0.00;;;;;;;;;;6256093;28;20082;-90
2023/09/20 07:21:30;;;;;;;0.00;0.00;;;;;;;;;;6269332;28;20390;-91
2023/09/20 07:24:32;;;;;;;0.00;0.00;;;;;;;;;;6284911;28;20021;-90
2023/09/20 07:27:33;;;;;;;0.00;0.00;;;;;;;;;;6273262;28;20035;-91
2023/09/20 07:30:39;;;;;;;0.00;0.00;;;;;;;;;;6286461;28;20028;-90
2023/09/20 07:33:40;;;;;;;0.00;0.00;;;;;;;;;;6282964;28;20023;-91
2023/09/20 07:36:43;;;;;;;0.00;0.00;;;;;;;;;;6282560;28;20478;-86
2023/09/20 07:39:46;;;;;;;0.00;0.00;;;;;;;;;;6288520;28;20029;-86
2023/09/20 07:42:50;;;;;;;0.00;0.00;;;;;;;;;;6277475;28;20040;-86
2023/09/20 07:45:50;;;;;;;0.00;0.00;;;;;;;;;;6270549;28;20017;-86
2023/09/20 07:48:50;;;;;;;0.00;0.00;;;;;;;;;;6285164;28;20096;-86
2023/09/20 07:51:54;;;;;;;0.00;0.00;;;;;;;;;;6275436;28;20043;-86
2023/09/20 07:54:54;;;;;;;0.00;0.00;;;;;;;;;;6281949;28;20033;-86
2023/09/20 07:57:58;;;;;;;0.00;0.00;;;;;;;;;;6282397;28;20025;-85
2023/09/20 08:00:58;;;;;;;0.00;0.00;;;;;;;;;;6257356;28;20471;-86
2023/09/20 08:03:58;;;;;;;0.00;0.00;;;;;;;;;;6268016;28;20037;-86
2023/09/20 08:06:59;;;;;;;0.00;0.00;;;;;;;;;;6272463;28;20045;-86
2023/09/20 08:09:59;;;;;;;0.00;0.00;;;;;;;;;;6265649;28;20604;-86
2023/09/20 08:13:00;;;;;;;0.00;0.00;;;;;;;;;;6282414;28;20107;-85
2023/09/20 08:16:04;;;;;;;;;;;;;;;;;;6266514;28;20386;-86
2023/09/20 08:19:16;;;;;;;0.00;0.00;;;;;;;;;;6289346;28;19955;-86
2023/09/20 08:22:17;;;;;;;0.00;0.00;;;;;;;;;;6276683;28;20155;-85
2023/09/20 09:02:01;;;;;;;0.00;0.00;;;;;;;;;;6287079;28;20033;-90
2023/09/20 09:05:03;;;;;;;0.00;0.00;;;;;;;;;;6282498;28;20749;-90
2023/09/20 09:08:05;;;;;;;0.00;0.00;;;;;;;;;;6290295;28;20040;-90
2023/09/20 09:11:06;;;;;;;0.00;0.00;;;;;;;;;;6262349;28;20028;-91
2023/09/20 09:14:06;;;;;;;0.00;0.00;;;;;;;;;;6280240;28;20028;-91
2023/09/20 09:17:07;;;;;;;0.00;0.00;;;;;;;;;;6284889;28;20356;-91
2023/09/20 09:20:11;;;;;;;0.00;0.00;;;;;;;;;;6282900;28;20052;-91
2023/09/20 09:23:11;;;;;;;0.00;0.00;;;;;;;;;;6283599;28;20551;-91
2023/09/20 09:26:15;;;;;;;0.00;0.00;;;;;;;;;;6280391;28;20017;-91
2023/09/20 09:29:19;;;;;;;0.00;0.00;;;;;;;;;;6269442;28;20020;-90
2023/09/20 09:32:19;;;;;;;0.00;0.00;;;;;;;;;;6280167;28;20025;-91
2023/09/20 09:35:20;;;;;;;0.00;0.00;;;;;;;;;;6276391;28;20383;-91
2023/09/20 09:38:21;;;;;;;0.00;0.00;;;;;;;;;;6254767;28;20021;-91
2023/09/20 09:41:21;;;;;;;0.00;0.00;;;;;;;;;;6271992;28;20107;-91
2023/09/20 09:44:22;;;;;;;0.00;0.00;;;;;;;;;;6276600;28;20531;-90
2023/09/20 09:47:25;;;;;;;0.00;0.00;;;;;;;;;;6269098;28;20106;-90
2023/09/20 09:50:26;;;;;;;0.00;0.00;;;;;;;;;;6272795;28;20024;-91
2023/09/20 09:53:28;;;;;;;0.00;0.00;;;;;;;;;;6282780;28;20077;-91
2023/09/20 09:56:28;;;;;;;0.00;0.00;;;;;;;;;;6280854;28;20076;-87
2023/09/20 09:59:29;;;;;;;0.00;0.00;;;;;;;;;;6287600;28;20103;-87
2023/09/20 10:02:31;;;;;;;0.00;0.00;;;;;;;;;;6261252;28;20025;-86
2023/09/20 10:05:31;;;;;;;0.00;0.00;;;;;;;;;;6283904;28;20033;-86
2023/09/20 10:08:34;;;;;;;0.00;0.00;;;;;;;;;;6256072;28;20195;-86
2023/09/20 10:11:34;;;;;;;0.00;0.00;;;;;;;;;;6258308;28;20029;-87
2023/09/20 10:14:37;;;;;;;0.00;0.00;;;;;;;;;;6248066;28;20467;-86
2023/09/20 10:17:54;;;;;;;0.00;0.00;;;;;;;;;;6246881;28;20009;-86
2023/09/20 10:21:04;;;;;;;0.00;0.00;;;;;;;;;;6257156;28;20040;-86
2023/09/20 10:24:09;;;;;;;0.00;0.00;;;;;;;;;;6245103;28;20021;-86
2023/09/20 10:27:14;;;;;;;0.00;0.00;;;;;;;;;;6247571;28;20073;-86
2023/09/20 10:30:14;;;;;;;0.00;0.00;;;;;;;;;;6255779;28;20390;-87
2023/09/20 10:33:35;;;;;;;0.00;0.00;;;;;;;;;;6242260;28;20032;-86
2023/09/20 10:36:35;;;;;;;0.00;0.00;;;;;;;;;;6260880;28;20028;-85
2023/09/20 10:39:35;;;;;;;0.00;0.00;;;;;;;;;;6247045;28;20116;-86
2023/09/20 10:42:50;;;;;;;0.00;0.00;;;;;;;;;;6257042;28;20028;-86
2023/09/20 10:45:51;;;;;;;0.00;0.00;;;;;;;;;;6268904;28;20021;-86
2023/09/20 10:48:52;;;;;;;0.00;0.00;;;;;;;;;;6265961;28;20028;-86
2023/09/20 10:51:54;;;;;;;0.00;0.00;;;;;;;;;;6237914;28;20399;-86
2023/09/20 10:55:14;;;;;;;0.00;0.00;;;;;;;;;;6237967;28;20499;-86
2023/09/20 10:58:18;;;;;;;0.00;0.00;;;;;;;;;;6249653;28;20037;-86
2023/09/20 11:01:18;;;;;;;0.00;0.00;;;;;;;;;;6259106;28;20037;-87
2023/09/20 11:04:19;;;;;;;0.00;0.00;;;;;;;;;;6247420;28;20071;-87
2023/09/20 11:07:20;;;;;;;0.00;0.00;;;;;;;;;;6245155;28;20064;-91
2023/09/20 11:10:20;;;;;;;0.00;0.00;;;;;;;;;;6270288;28;20803;-91
2023/09/20 11:13:22;;;;;;;0.00;0.00;;;;;;;;;;6282903;28;20731;-91
2023/09/20 11:16:22;;;;;;;0.00;0.00;;;;;;;;;;6277778;28;20017;-87
2023/09/20 11:19:22;;;;;;;0.00;0.00;;;;;;;;;;6250461;28;20035;-87
2023/09/20 11:22:23;;;;;;;0.00;0.00;;;;;;;;;;6293535;28;20458;-87
2023/09/20 11:25:23;;;;;;;0.00;0.00;;;;;;;;;;6272313;28;20017;-87
2023/09/20 11:28:24;;;;;;;0.00;0.00;;;;;;;;;;6271092;28;20016;-87
2023/09/20 11:31:28;;;;;;;0.00;0.00;;;;;;;;;;6266974;28;20538;-87
2023/09/20 11:34:41;;;;;;;0.00;0.00;;;;;;;;;;6281652;28;20305;-87
2023/09/20 11:37:42;;;;;;;0.00;0.00;;;;;;;;;;6280215;28;20495;-87
2023/09/20 11:40:46;;;;;;;0.00;0.00;;;;;;;;;;6287944;28;20083;-87
2023/09/20 11:43:46;;;;;;;0.00;0.00;;;;;;;;;;6264933;28;20020;-87
2023/09/20 11:46:54;;;;;;;0.00;0.00;;;;;;;;;;6286904;28;20024;-86
2023/09/20 11:49:55;;;;;;;0.00;0.00;;;;;;;;;;6274129;28;20021;-87
2023/09/20 11:52:57;;;;;;;0.00;0.00;;;;;;;;;;6277435;28;20556;-86
2023/09/20 11:56:03;;;;;;;0.00;0.00;;;;;;;;;;6272607;28;20021;-86
2023/09/20 11:59:09;;;;;;;0.00;0.00;;;;;;;;;;6279088;28;20545;-87
2023/09/20 12:02:12;;;;;;;0.00;0.00;;;;;;;;;;6264197;28;20124;-86
2023/09/20 12:05:12;;;;;;;0.00;0.00;;;;;;;;;;6286545;28;20024;-86
2023/09/20 12:08:12;;;;;;;0.00;0.00;;;;;;;;;;6299205;28;20059;-86
2023/09/20 12:11:14;;;;;;;0.00;0.00;;;;;;;;;;6288242;28;20032;-86
2023/09/20 12:14:15;;;;;;;0.00;0.00;;;;;;;;;;6283661;28;20048;-86
2023/09/20 12:17:15;;;;;;;0.00;0.00;;;;;;;;;;6298641;28;20044;-90
2023/09/20 12:20:15;;;;;;;0.00;0.00;;;;;;;;;;6303938;28;20024;-89
2023/09/20 12:23:17;;;;;;;0.00;0.00;;;;;;;;;;6292875;28;20016;-90
2023/09/20 12:26:17;;;;;;;0.00;0.00;;;;;;;;;;6299562;28;20016;-85
2023/09/20 12:29:17;;;;;;;0.00;0.00;;;;;;;;;;6288778;28;20439;-86
2023/09/20 12:32:18;;;;;;;0.00;0.00;;;;;;;;;;6302255;28;20442;-85
2023/09/20 12:35:18;;;;;;;0.00;0.00;;;;;;;;;;6281196;28;20021;-85
2023/09/20 12:38:19;;;;;;;0.00;0.00;;;;;;;;;;6281757;28;20020;-85
2023/09/20 12:41:20;;;;;;;0.00;0.00;;;;;;;;;;6281953;28;20022;-85
2023/09/20 12:44:22;;;;;;;0.00;0.00;;;;;;;;;;6311432;28;20020;-86
2023/09/20 12:47:22;;;;;;;0.00;0.00;;;;;;;;;;6316485;28;20020;-86
2023/09/20 12:50:23;;;;;;;0.00;0.00;;;;;;;;;;6301057;28;20098;-87
2023/09/20 12:53:24;;;;;;;0.00;0.00;;;;;;;;;;6299181;28;20043;-87
2023/09/20 12:56:24;;;;;;;0.00;0.00;;;;;;;;;;6299166;28;20024;-86
2023/09/20 12:59:27;;;;;;;0.00;0.00;;;;;;;;;;6299348;28;20024;-86
2023/09/20 13:02:27;;;;;;;0.00;0.00;;;;;;;;;;6299333;28;20391;-85
2023/09/20 13:05:28;;;;;;;0.00;0.00;;;;;;;;;;6299236;28;20043;-86
2023/09/20 13:08:28;;;;;;;0.00;0.00;;;;;;;;;;6298167;28;20482;-86
2023/09/20 13:11:28;;;;;;;0.00;0.00;;;;;;;;;;6300485;28;20024;-86
2023/09/20 13:14:30;;;;;;;0.00;0.00;;;;;;;;;;6299069;28;20012;-86
2023/09/20 13:17:31;;;;;;;0.00;0.00;;;;;;;;;;6280721;28;20075;-86
2023/09/20 13:20:31;;;;;;;0.00;0.00;;;;;;;;;;6298415;28;20021;-86
2023/09/20 13:23:33;;;;;;;0.00;0.00;;;;;;;;;;6280125;28;20017;-86
2023/09/20 13:26:33;;;;;;;0.00;0.00;;;;;;;;;;6298555;28;20016;-86
2023/09/20 13:29:35;;;;;;;0.00;0.00;;;;;;;;;;6281114;28;20017;-85
2023/09/20 13:32:39;;;;;;;0.00;0.00;;;;;;;;;;6280485;28;20017;-87
2023/09/20 13:35:39;;;;;;;0.00;0.00;;;;;;;;;;6297931;28;20044;-92
2023/09/20 13:38:40;;;;;;;0.00;0.00;;;;;;;;;;6297835;28;20027;-87
2023/09/20 13:41:40;;;;;;;0.00;0.00;;;;;;;;;;6297715;28;20023;-85
2023/09/20 13:44:42;;;;;;;0.00;0.00;;;;;;;;;;6279433;28;20025;-86
2023/09/20 13:47:42;;;;;;;0.00;0.00;;;;;;;;;;6279277;28;20023;-86
2023/09/20 13:50:43;;;;;;;0.00;0.00;;;;;;;;;;6297390;28;20024;-86
2023/09/20 13:53:43;;;;;;;0.00;0.00;;;;;;;;;;6297492;28;20016;-86
2023/09/20 13:56:45;;;;;;;0.00;0.00;;;;;;;;;;6279290;28;20378;-86
2023/09/20 13:59:57;;;;;;;0.00;0.00;;;;;;;;;;6297886;28;20024;-87
2023/09/20 14:02:59;;;;;;;0.00;0.00;;;;;;;;;;6262486;28;20044;-87
2023/09/20 14:06:01;;;;;;;0.00;0.00;;;;;;;;;;6297103;28;20028;-86
2023/09/20 14:09:01;;;;;;;0.00;0.00;;;;;;;;;;6297549;28;20138;-86
2023/09/20 14:12:04;;;;;;;0.00;0.00;;;;;;;;;;6278916;28;20016;-86
2023/09/20 14:15:07;;;;;;;0.00;0.00;;;;;;;;;;6296700;28;20013;-86
2023/09/20 14:18:08;;;;;;;0.00;0.00;;;;;;;;;;6296538;28;20520;-86
2023/09/20 14:21:09;;;;;;;;;;;;;;;;;;6297327;28;20016;-87
2023/09/20 14:24:09;;;;;;;0.00;0.00;;;;;;;;;;6299933;28;20274;-86
2023/09/20 14:27:09;;;;;;;;;;;;;;;;;;6301939;28;20067;-86
2023/09/20 14:30:10;;;;;;;0.00;0.00;;;;;;;;;;6300846;28;19927;-86
2023/09/20 14:33:11;;;;;;;;;;;;;;;;;;6301800;28;20020;-87
2023/09/20 14:36:11;;;;;;;0.00;0.00;;;;;;;;;;6283571;28;20433;-87
2023/09/20 14:39:11;;;;;;;;;;;;;;;;;;6301677;28;20296;-85
2023/09/20 14:42:12;;;;;;;0.00;0.00;;;;;;;;;;6300925;28;20301;-86
2023/09/20 14:45:12;;;;;;;;;;;;;;;;;;6284214;28;20035;-87
2023/09/20 14:48:13;;;;;;;0.00;0.00;;;;;;;;;;6302312;28;20362;-92
2023/09/20 14:51:17;;;;;;;;;;;;;;;;;;6302442;28;20027;-92
2023/09/20 14:54:18;;;;;;;0.00;0.00;;;;;;;;;;6302599;28;19958;-92
2023/09/20 14:57:18;;;;;;;0.00;0.00;;;;;;;;;;6301870;28;20514;-92
2023/09/20 15:00:21;;;;;;;;;;;;;;;;;;6301826;28;20020;-93
2023/09/20 15:03:22;;;;;;;0.00;0.00;;;;;;;;;;6301390;28;19911;-91
2023/09/20 15:06:22;;;;;;;;;;;;;;;;;;6301580;28;20020;-91
2023/09/20 15:09:22;;;;;;;0.00;0.00;;;;;;;;;;6300975;28;19908;-91
2023/09/20 15:12:22;;;;;;;;;;;;;;;;;;6301219;28;20102;-92
2023/09/20 15:15:23;;;;;;;0.00;0.00;;;;;;;;;;6300547;28;19908;-92
2023/09/20 15:18:24;;;;;;;;;;;;;;;;;;6283145;28;20024;-92
2023/09/20 15:21:25;;;;;;;0.00;0.00;;;;;;;;;;6301261;28;19904;-92
2023/09/20 15:24:25;;;;;;;;;;;;;;;;;;6282873;28;20036;-92
2023/09/20 15:27:28;;;;;;;0.00;0.00;;;;;;;;;;6300632;28;19911;-92
2023/09/20 15:30:29;;;;;;;0.00;0.00;;;;;;;;;;6300454;28;20066;-92
2023/09/20 15:33:29;;;;;;;;;;;;;;;;;;6305079;28;20008;-92
2023/09/20 15:36:30;;;;;;;0.00;0.00;;;;;;;;;;6301254;28;19912;-92
2023/09/20 15:39:30;;;;;;;;;;;;;;;;;;6300630;28;20040;-92
2023/09/20 15:42:31;;;;;;;0.00;0.00;;;;;;;;;;6282725;28;19910;-92
2023/09/20 15:45:33;;;;;;;;;;;;;;;;;;6282500;28;20043;-91
2023/09/20 15:48:34;;;;;;;0.00;0.00;;;;;;;;;;6281272;28;20008;-85
2023/09/20 15:51:34;;;;;;;;;;;;;;;;;;6299753;28;20499;-85
2023/09/20 15:54:35;;;;;;;0.00;0.00;;;;;;;;;;6299646;28;19911;-86
2023/09/20 15:57:35;;;;;;;0.00;0.00;;;;;;;;;;6281749;28;20032;-86
2023/09/20 16:00:38;;;;;;;0.00;0.00;;;;;;;;;;6264189;28;20032;-85
2023/09/20 16:03:38;;;;;;;0.00;0.00;;;;;;;;;;6298656;28;20266;-86
2023/09/20 16:06:40;;;;;;;0.00;0.00;;;;;;;;;;6298715;28;20040;-86
2023/09/20 16:09:40;;;;;;;0.00;0.00;;;;;;;;;;6298739;28;20028;-87
2023/09/20 16:12:42;;;;;;;0.00;0.00;;;;;;;;;;6298714;28;20427;-87
2023/09/20 16:15:43;;;;;;;0.00;0.00;;;;;;;;;;6298532;28;20107;-87
2023/09/20 16:18:43;;;;;;;0.00;0.00;;;;;;;;;;6280325;28;20025;-87
2023/09/20 16:21:43;;;;;;;0.00;0.00;;;;;;;;;;6298492;28;20074;-87
2023/09/20 16:24:43;;;;;;;0.00;0.00;;;;;;;;;;6280315;28;20049;-87
2023/09/20 16:27:46;;;;;;;0.00;0.00;;;;;;;;;;6297988;28;20016;-87
2023/09/20 16:30:47;;;;;;;0.00;0.00;;;;;;;;;;6298084;28;20060;-86
2023/09/20 16:33:47;;;;;;;0.00;0.00;;;;;;;;;;6297879;28;20039;-87
2023/09/20 16:36:48;;;;;;;0.00;0.00;;;;;;;;;;6279837;28;20021;-87
2023/09/20 16:39:49;;;;;;;0.00;0.00;;;;;;;;;;6297978;28;20024;-87
2023/09/20 16:42:50;;;;;;;0.00;0.00;;;;;;;;;;6298340;28;20104;-87
2023/09/20 16:45:51;;;;;;;0.00;0.00;;;;;;;;;;6297317;28;20016;-87
2023/09/20 16:48:51;;;;;;;0.00;0.00;;;;;;;;;;6297902;28;20063;-86
2023/09/20 16:51:54;;;;;;;0.00;0.00;;;;;;;;;;6297690;28;20120;-86
2023/09/20 16:54:55;;;;;;;0.00;0.00;;;;;;;;;;6297803;28;20016;-87
2023/09/20 16:57:58;;;;;;;0.00;0.00;;;;;;;;;;6297792;28;20074;-87
2023/09/20 17:00:58;;;;;;;0.00;0.00;;;;;;;;;;6297712;28;20020;-86
2023/09/20 17:03:59;;;;;;;0.00;0.00;;;;;;;;;;6297453;28;20376;-86
2023/09/20 17:06:59;;;;;;;0.00;0.00;;;;;;;;;;6298081;28;20048;-90
2023/09/20 17:10:00;;;;;;;0.00;0.00;;;;;;;;;;6298143;28;20086;-90
2023/09/20 17:13:00;;;;;;;0.00;0.00;;;;;;;;;;6279988;28;20017;-91
2023/09/20 17:16:04;;;;;;;0.00;0.00;;;;;;;;;;6279170;28;20107;-90
2023/09/20 17:19:05;;;;;;;0.10;0.10;;;;;;;;;;6297352;28;20020;-90
2023/09/20 17:22:06;;;;;;;0.00;0.00;;;;;;;;;;6297722;28;20044;-91
2023/09/20 17:25:07;;;;;;;0.00;0.00;;;;;;;;;;6297398;28;20040;-91
2023/09/20 17:28:10;;;;;;;;;;;;;;;;;;6297417;28;20039;-90
2023/09/20 17:31:10;;;;;;;0.10;0.10;;;;;;;;;;6297073;28;19960;-90
2023/09/20 17:34:11;;;;;;;0.10;0.10;;;;;;;;;;6296849;28;20038;-90
2023/09/20 17:37:11;;;;;;;0.10;0.10;;;;;;;;;;6278935;28;20059;-90
2023/09/20 17:40:11;;;;;;;0.00;0.00;;;;;;;;;;6297069;28;20025;-90
2023/09/20 17:43:11;;;;;;;0.10;0.10;;;;;;;;;;6297155;28;20016;-91
2023/09/20 17:46:15;;;;;;;0.10;0.10;;;;;;;;;;6296627;28;20443;-90
2023/09/20 17:49:15;;;;;;;0.10;0.10;;;;;;;;;;6297880;28;20020;-91
2023/09/20 17:52:15;;;;;;;0.10;0.10;;;;;;;;;;6278760;28;20513;-90
2023/09/20 17:55:17;;;;;;;0.10;0.10;;;;;;;;;;6278759;28;20021;-90
2023/09/20 17:58:17;;;;;;;0.10;0.10;;;;;;;;;;6280566;28;20016;-89
2023/09/20 18:01:18;;;;;;;0.10;0.10;;;;;;;;;;6301622;28;20064;-90
2023/09/20 18:04:21;;;;;;;0.10;0.10;;;;;;;;;;6301548;28;20114;-90
2023/09/20 18:07:22;;;;;;;0.10;0.10;;;;;;;;;;6301522;28;20052;-86
2023/09/20 18:10:24;;;;;;;0.10;0.10;;;;;;;;;;6301550;28;20095;-85
2023/09/20 18:13:25;;;;;;;0.10;0.10;;;;;;;;;;6301457;28;20016;-87
2023/09/20 18:16:26;;;;;;;0.10;0.10;;;;;;;;;;6301672;28;20017;-86
2023/09/20 18:19:26;;;;;;;0.10;0.10;;;;;;;;;;6283846;28;20039;-86
2023/09/20 18:22:27;;;;;;;0.10;0.10;;;;;;;;;;6301034;28;20094;-86
2023/09/20 18:25:27;;;;;;;0.10;0.10;;;;;;;;;;6301268;28;20024;-86
2023/09/20 18:28:28;;;;;;;0.10;0.10;;;;;;;;;;6301371;28;20028;-87
2023/09/20 18:31:32;;;;;;;0.10;0.10;;;;;;;;;;6300953;28;20024;-87
2023/09/20 18:34:32;;;;;;;0.00;0.00;;;;;;;;;;6301246;28;20025;-86
2023/09/20 18:37:33;;;;;;;0.03;0.03;;;;;;;;;;6282991;28;20016;-86
2023/09/20 18:40:33;;;;;;;0.10;0.10;;;;;;;;;;6267531;28;20091;-86
2023/09/20 18:43:35;;;;;;;0.10;0.10;;;;;;;;;;6299969;28;20044;-86
2023/09/20 18:46:36;;;;;;;;;;;;;;;;;;6301480;28;20036;-87
2023/09/20 18:49:37;;;;;;;0.10;0.10;;;;;;;;;;6300659;28;19934;-86